Airports Sweden Malmö Sturup Airport

Malmö Sturup Airport (ESMS / MMX)

Facts about Malmö Sturup Airport

Name Malmö Sturup Airport
City Malmoe
Country Sweden
ICAO code ESMS
IATA code MMX
Elevation 71.9328 meters (236 feet)

Weather

METAR

Metar data retrieved Saturday, 20 July 2024 at 01:25 UTC (3 minutes ago)

ESMS 200050Z 00000KT CAVOK 11/11 Q1018

Live traffic

Navigraph Charts (account required)